Time,TemperatureF,DewpointF,PressureIn,WindDirection,WindDirectionDegrees,WindSpeedMPH,WindSpeedGustMPH,Humidity,HourlyPrecipIn,Conditions,Clouds,dailyrainin,SoftwareType,DateUTC
2013-07-24 00:00:00,69.1,67.6,29.65,South,180,0.0,7.0,95,0.00,,,-99.99,WeatherLink 5.6,2013-07-24 04:00:00,
2013-07-24 00:30:00,68.7,67.2,29.65,South,180,0.0,4.0,95,0.00,,,-99.99,WeatherLink 5.6,2013-07-24 04:30:00,
2013-07-24 01:00:00,68.4,67.2,29.65,South,180,0.0,3.0,96,0.00,,,-99.99,WeatherLink 5.6,2013-07-24 05:00:00,
2013-07-24 01:30:00,68.1,66.9,29.63,South,180,0.0,3.0,96,0.00,,,-99.99,WeatherLink 5.6,2013-07-24 05:30:00,
2013-07-24 02:00:00,67.9,67.0,29.61,South,180,2.0,10.0,97,0.00,,,-99.99,WeatherLink 5.6,2013-07-24 06:00:00,
2013-07-24 02:30:00,67.6,66.7,29.62,South,180,2.0,10.0,97,0.00,,,-99.99,WeatherLink 5.6,2013-07-24 06:30:00,
2013-07-24 03:00:00,67.2,66.6,29.61,South,180,1.0,7.0,98,0.00,,,-99.99,WeatherLink 5.6,2013-07-24 07:00:00,
2013-07-24 03:30:00,67.2,66.6,29.60,South,180,2.0,13.0,98,0.00,,,-99.99,WeatherLink 5.6,2013-07-24 07:30:00,
2013-07-24 04:00:00,67.2,66.6,29.60,South,180,2.0,11.0,98,0.00,,,-99.99,WeatherLink 5.6,2013-07-24 08:00:00,
2013-07-24 04:30:00,66.9,66.3,29.59,South,180,2.0,9.0,98,0.00,,,-99.99,WeatherLink 5.6,2013-07-24 08:30:00,
2013-07-24 05:00:00,66.8,66.2,29.60,South,180,2.0,9.0,98,0.00,,,-99.99,WeatherLink 5.6,2013-07-24 09:00:00,
2013-07-24 05:30:00,67.1,66.5,29.61,SW,225,1.0,10.0,98,0.00,,,-99.99,WeatherLink 5.6,2013-07-24 09:30:00,
2013-07-24 06:00:00,67.8,67.2,29.62,West,270,3.0,15.0,98,0.00,,,-99.99,WeatherLink 5.6,2013-07-24 10:00:00,
2013-07-24 06:30:00,67.5,66.6,29.62,NW,315,2.0,10.0,97,0.00,,,-99.99,WeatherLink 5.6,2013-07-24 10:30:00,
2013-07-24 07:00:00,67.6,66.4,29.64,NW,315,2.0,14.0,96,0.00,,,-99.99,WeatherLink 5.6,2013-07-24 11:00:00,
2013-07-24 07:30:00,67.6,66.4,29.64,NW,315,2.0,7.0,96,0.00,,,-99.99,WeatherLink 5.6,2013-07-24 11:30:00,
2013-07-24 08:00:00,68.4,67.2,29.65,WNW,292,1.0,6.0,96,0.00,,,-99.99,WeatherLink 5.6,2013-07-24 12:00:00,
2013-07-24 08:30:00,69.4,67.6,29.64,WNW,292,2.0,10.0,94,0.00,,,-99.99,WeatherLink 5.6,2013-07-24 12:30:00,
2013-07-24 09:00:00,70.3,67.9,29.65,West,270,1.0,7.0,92,0.00,,,-99.99,WeatherLink 5.6,2013-07-24 13:00:00,
2013-07-24 09:30:00,69.7,67.0,29.67,West,270,1.0,8.0,91,0.00,,,-99.99,WeatherLink 5.6,2013-07-24 13:30:00,
2013-07-24 10:00:00,69.6,67.2,29.67,West,270,0.0,6.0,92,0.00,,,-99.99,WeatherLink 5.6,2013-07-24 14:00:00,
2013-07-24 10:30:00,70.5,68.1,29.67,West,270,0.0,4.0,92,0.00,,,-99.99,WeatherLink 5.6,2013-07-24 14:30:00,
2013-07-24 11:00:00,71.1,67.0,29.68,NW,315,2.0,11.0,87,0.00,,,-99.99,WeatherLink 5.6,2013-07-24 15:00:00,
2013-07-24 11:30:00,72.6,66.8,29.67,West,270,0.0,5.0,82,0.00,,,-99.99,WeatherLink 5.6,2013-07-24 15:30:00,
2013-07-24 12:00:00,72.9,67.1,29.67,NW,315,2.0,7.0,82,0.00,,,-99.99,WeatherLink 5.6,2013-07-24 16:00:00,
2013-07-24 12:30:00,74.5,66.8,29.66,NW,315,2.0,10.0,77,0.00,,,-99.99,WeatherLink 5.6,2013-07-24 16:30:00,
2013-07-24 13:00:00,74.1,66.4,29.66,West,270,1.0,9.0,77,0.00,,,-99.99,WeatherLink 5.6,2013-07-24 17:00:00,
2013-07-24 13:30:00,73.5,65.8,29.67,West,270,1.0,8.0,77,0.00,,,-99.99,WeatherLink 5.6,2013-07-24 17:30:00,
2013-07-24 14:00:00,73.4,66.5,29.67,WNW,292,2.0,9.0,79,0.00,,,-99.99,WeatherLink 5.6,2013-07-24 18:00:00,
2013-07-24 14:30:00,73.8,65.8,29.67,NW,315,2.0,9.0,76,0.00,,,-99.99,WeatherLink 5.6,2013-07-24 18:30:00,
2013-07-24 15:00:00,74.8,67.1,29.67,NW,315,1.0,7.0,77,0.00,,,-99.99,WeatherLink 5.6,2013-07-24 19:00:00,
2013-07-24 15:30:00,74.2,69.1,29.67,North,0,0.0,3.0,84,0.00,,,-99.99,WeatherLink 5.6,2013-07-24 19:30:00,
2013-07-24 16:00:00,75.0,67.7,29.66,NNW,337,1.0,11.0,78,0.00,,,-99.99,WeatherLink 5.6,2013-07-24 20:00:00,
2013-07-24 16:30:00,72.7,66.5,29.66,NE,45,1.0,6.0,81,0.00,,,-99.99,WeatherLink 5.6,2013-07-24 20:30:00,
2013-07-24 17:00:00,72.6,67.5,29.66,NNE,22,0.0,4.0,84,0.00,,,-99.99,WeatherLink 5.6,2013-07-24 21:00:00,
2013-07-24 17:30:00,71.8,66.4,29.66,NE,45,0.0,5.0,83,0.00,,,-99.99,WeatherLink 5.6,2013-07-24 21:30:00,
2013-07-24 18:00:00,71.4,67.0,29.66,NW,315,0.0,7.0,86,0.00,,,-99.99,WeatherLink 5.6,2013-07-24 22:00:00,
2013-07-24 18:30:00,70.7,66.3,29.66,NW,315,1.0,8.0,86,0.00,,,-99.99,WeatherLink 5.6,2013-07-24 22:30:00,
2013-07-24 19:00:00,70.1,64.7,29.67,NW,315,1.0,9.0,83,0.00,,,-99.99,WeatherLink 5.6,2013-07-24 23:00:00,
2013-07-24 19:30:00,68.5,64.8,29.68,NW,315,1.0,13.0,88,0.00,,,-99.99,WeatherLink 5.6,2013-07-24 23:30:00,
2013-07-24 20:00:00,68.2,64.8,29.69,NW,315,1.0,7.0,89,0.00,,,-99.99,WeatherLink 5.6,2013-07-25 00:00:00,
2013-07-24 20:30:00,67.2,64.2,29.70,NW,315,1.0,11.0,90,0.00,,,-99.99,WeatherLink 5.6,2013-07-25 00:30:00,
2013-07-24 21:00:00,66.3,63.9,29.71,NNW,337,1.0,11.0,92,0.00,,,-99.99,WeatherLink 5.6,2013-07-25 01:00:00,
2013-07-24 21:30:00,65.8,63.7,29.72,NNW,337,0.0,7.0,93,0.00,,,-99.99,WeatherLink 5.6,2013-07-25 01:30:00,
2013-07-24 22:00:00,64.8,62.7,29.73,NE,45,0.0,3.0,93,0.00,,,-99.99,WeatherLink 5.6,2013-07-25 02:00:00,
2013-07-24 22:30:00,64.5,62.4,29.73,NE,45,1.0,13.0,93,0.00,,,-99.99,WeatherLink 5.6,2013-07-25 02:30:00,
2013-07-24 23:00:00,64.0,62.2,29.74,NE,45,0.0,3.0,94,0.00,,,-99.99,WeatherLink 5.6,2013-07-25 03:00:00,
2013-07-24 23:30:00,63.2,61.7,29.74,NNE,22,0.0,3.0,95,0.00,,,-99.99,WeatherLink 5.6,2013-07-25 03:30:00,